sensor_id;sensor_type;location;lat;lon;timestamp;temperature;humidity
23803;DHT22;12082;51.786;6.018;2023-05-07T00:00:19;13.30;99.90
23803;DHT22;12082;51.786;6.018;2023-05-07T00:02:45;13.30;99.90
23803;DHT22;12082;51.786;6.018;2023-05-07T00:05:12;13.20;99.90
23803;DHT22;12082;51.786;6.018;2023-05-07T00:07:37;13.00;99.90
23803;DHT22;12082;51.786;6.018;2023-05-07T00:10:04;13.20;99.90
23803;DHT22;12082;51.786;6.018;2023-05-07T00:12:29;13.20;99.90
23803;DHT22;12082;51.786;6.018;2023-05-07T00:15:02;13.10;99.90
23803;DHT22;12082;51.786;6.018;2023-05-07T00:17:29;13.10;99.90
23803;DHT22;12082;51.786;6.018;2023-05-07T00:19:54;13.10;99.90
23803;DHT22;12082;51.786;6.018;2023-05-07T00:22:20;13.10;99.90
23803;DHT22;12082;51.786;6.018;2023-05-07T00:24:46;13.00;99.90
23803;DHT22;12082;51.786;6.018;2023-05-07T00:27:12;13.00;99.90
23803;DHT22;12082;51.786;6.018;2023-05-07T00:29:37;13.00;99.90
23803;DHT22;12082;51.786;6.018;2023-05-07T00:32:03;13.00;99.90
23803;DHT22;12082;51.786;6.018;2023-05-07T00:34:28;12.90;99.90
23803;DHT22;12082;51.786;6.018;2023-05-07T00:36:54;12.90;99.90
23803;DHT22;12082;51.786;6.018;2023-05-07T00:39:20;12.80;99.90
23803;DHT22;12082;51.786;6.018;2023-05-07T00:41:46;12.70;99.90
23803;DHT22;12082;51.786;6.018;2023-05-07T00:44:11;12.70;99.90
23803;DHT22;12082;51.786;6.018;2023-05-07T00:46:37;12.60;99.90
23803;DHT22;12082;51.786;6.018;2023-05-07T00:49:03;12.60;99.90
23803;DHT22;12082;51.786;6.018;2023-05-07T00:51:29;12.50;99.90
23803;DHT22;12082;51.786;6.018;2023-05-07T00:53:55;12.40;99.90
23803;DHT22;12082;51.786;6.018;2023-05-07T00:56:21;12.40;99.90
23803;DHT22;12082;51.786;6.018;2023-05-07T00:58:48;12.40;99.90
23803;DHT22;12082;51.786;6.018;2023-05-07T01:01:13;12.30;99.90
23803;DHT22;12082;51.786;6.018;2023-05-07T01:03:41;12.30;99.90
23803;DHT22;12082;51.786;6.018;2023-05-07T01:06:07;12.30;99.90
23803;DHT22;12082;51.786;6.018;2023-05-07T01:08:34;12.40;99.90
23803;DHT22;12082;51.786;6.018;2023-05-07T01:11:00;12.40;99.90
23803;DHT22;12082;51.786;6.018;2023-05-07T01:13:27;12.40;99.90
23803;DHT22;12082;51.786;6.018;2023-05-07T01:15:53;12.40;99.90
23803;DHT22;12082;51.786;6.018;2023-05-07T01:18:18;12.40;99.90
23803;DHT22;12082;51.786;6.018;2023-05-07T01:20:45;12.50;99.90
23803;DHT22;12082;51.786;6.018;2023-05-07T01:23:11;12.40;99.90
23803;DHT22;12082;51.786;6.018;2023-05-07T01:25:36;12.40;99.90
23803;DHT22;12082;51.786;6.018;2023-05-07T01:28:03;12.40;99.90
23803;DHT22;12082;51.786;6.018;2023-05-07T01:30:30;12.40;99.90
23803;DHT22;12082;51.786;6.018;2023-05-07T01:35:30;12.50;99.90
23803;DHT22;12082;51.786;6.018;2023-05-07T01:37:57;12.50;99.90
23803;DHT22;12082;51.786;6.018;2023-05-07T01:40:24;12.50;99.90
23803;DHT22;12082;51.786;6.018;2023-05-07T01:42:50;12.40;99.90
23803;DHT22;12082;51.786;6.018;2023-05-07T01:45:16;12.50;99.90
23803;DHT22;12082;51.786;6.018;2023-05-07T01:47:42;12.50;99.90
23803;DHT22;12082;51.786;6.018;2023-05-07T01:50:09;12.50;99.90
23803;DHT22;12082;51.786;6.018;2023-05-07T01:52:37;12.50;99.90
23803;DHT22;12082;51.786;6.018;2023-05-07T01:55:03;12.50;99.90
23803;DHT22;12082;51.786;6.018;2023-05-07T01:57:29;12.40;99.90
23803;DHT22;12082;51.786;6.018;2023-05-07T01:59:54;12.40;99.90
23803;DHT22;12082;51.786;6.018;2023-05-07T02:02:20;12.40;99.90
23803;DHT22;12082;51.786;6.018;2023-05-07T02:04:45;12.40;99.90
23803;DHT22;12082;51.786;6.018;2023-05-07T02:07:11;12.40;99.90
23803;DHT22;12082;51.786;6.018;2023-05-07T02:09:36;12.40;99.90
23803;DHT22;12082;51.786;6.018;2023-05-07T02:12:02;12.40;99.90
23803;DHT22;12082;51.786;6.018;2023-05-07T02:14:28;12.50;99.90
23803;DHT22;12082;51.786;6.018;2023-05-07T02:16:53;12.50;99.90
23803;DHT22;12082;51.786;6.018;2023-05-07T02:19:19;12.50;99.90
23803;DHT22;12082;51.786;6.018;2023-05-07T02:21:46;12.50;99.90
23803;DHT22;12082;51.786;6.018;2023-05-07T02:24:12;12.40;99.90
23803;DHT22;12082;51.786;6.018;2023-05-07T02:26:37;12.60;99.90
23803;DHT22;12082;51.786;6.018;2023-05-07T02:29:03;12.40;99.90
23803;DHT22;12082;51.786;6.018;2023-05-07T02:31:28;12.40;99.90
23803;DHT22;12082;51.786;6.018;2023-05-07T02:33:54;12.30;99.90
23803;DHT22;12082;51.786;6.018;2023-05-07T02:36:19;12.30;99.90
23803;DHT22;12082;51.786;6.018;2023-05-07T02:38:45;12.30;99.90
23803;DHT22;12082;51.786;6.018;2023-05-07T02:41:10;12.20;99.90
23803;DHT22;12082;51.786;6.018;2023-05-07T02:43:36;12.20;99.90
23803;DHT22;12082;51.786;6.018;2023-05-07T02:46:06;12.20;99.90
23803;DHT22;12082;51.786;6.018;2023-05-07T02:48:32;12.20;99.90
23803;DHT22;12082;51.786;6.018;2023-05-07T02:50:58;12.20;99.90
23803;DHT22;12082;51.786;6.018;2023-05-07T02:53:24;12.20;99.90
23803;DHT22;12082;51.786;6.018;2023-05-07T02:55:56;12.20;99.90
23803;DHT22;12082;51.786;6.018;2023-05-07T02:58:22;12.20;99.90
23803;DHT22;12082;51.786;6.018;2023-05-07T03:00:48;12.20;99.90
23803;DHT22;12082;51.786;6.018;2023-05-07T03:03:14;12.20;99.90
23803;DHT22;12082;51.786;6.018;2023-05-07T03:05:40;12.20;99.90
23803;DHT22;12082;51.786;6.018;2023-05-07T03:08:05;12.20;99.90
23803;DHT22;12082;51.786;6.018;2023-05-07T03:10:31;12.10;99.90
23803;DHT22;12082;51.786;6.018;2023-05-07T03:12:57;12.20;99.90
23803;DHT22;12082;51.786;6.018;2023-05-07T03:15:22;12.20;99.90
23803;DHT22;12082;51.786;6.018;2023-05-07T03:17:48;12.10;99.90
23803;DHT22;12082;51.786;6.018;2023-05-07T03:20:14;12.10;99.90
23803;DHT22;12082;51.786;6.018;2023-05-07T03:22:40;12.20;99.90
23803;DHT22;12082;51.786;6.018;2023-05-07T03:25:06;12.20;99.90
23803;DHT22;12082;51.786;6.018;2023-05-07T03:27:32;12.10;99.90
23803;DHT22;12082;51.786;6.018;2023-05-07T03:29:57;12.20;99.90
23803;DHT22;12082;51.786;6.018;2023-05-07T03:32:23;12.20;99.90
23803;DHT22;12082;51.786;6.018;2023-05-07T03:34:48;12.30;99.90
23803;DHT22;12082;51.786;6.018;2023-05-07T03:37:14;12.30;99.90
23803;DHT22;12082;51.786;6.018;2023-05-07T03:39:40;12.30;99.90
23803;DHT22;12082;51.786;6.018;2023-05-07T03:42:05;12.20;99.90
23803;DHT22;12082;51.786;6.018;2023-05-07T03:44:31;12.30;99.90
23803;DHT22;12082;51.786;6.018;2023-05-07T03:46:56;12.30;99.90
23803;DHT22;12082;51.786;6.018;2023-05-07T03:49:22;12.20;99.90
23803;DHT22;12082;51.786;6.018;2023-05-07T03:51:47;12.20;99.90
23803;DHT22;12082;51.786;6.018;2023-05-07T03:54:13;12.20;99.90
23803;DHT22;12082;51.786;6.018;2023-05-07T03:56:38;12.20;99.90
23803;DHT22;12082;51.786;6.018;2023-05-07T03:59:04;12.20;99.90
23803;DHT22;12082;51.786;6.018;2023-05-07T04:01:29;12.20;99.90
23803;DHT22;12082;51.786;6.018;2023-05-07T04:03:56;12.20;99.90
23803;DHT22;12082;51.786;6.018;2023-05-07T04:06:22;12.20;99.90
23803;DHT22;12082;51.786;6.018;2023-05-07T04:08:48;12.20;99.90
23803;DHT22;12082;51.786;6.018;2023-05-07T04:11:13;12.20;99.90
23803;DHT22;12082;51.786;6.018;2023-05-07T04:13:39;12.20;99.90
23803;DHT22;12082;51.786;6.018;2023-05-07T04:16:05;12.20;99.90
23803;DHT22;12082;51.786;6.018;2023-05-07T04:18:31;12.20;99.90
23803;DHT22;12082;51.786;6.018;2023-05-07T04:20:56;12.20;99.90
23803;DHT22;12082;51.786;6.018;2023-05-07T04:23:22;12.20;99.90
23803;DHT22;12082;51.786;6.018;2023-05-07T04:25:47;12.30;99.90
23803;DHT22;12082;51.786;6.018;2023-05-07T04:28:13;12.30;99.90
23803;DHT22;12082;51.786;6.018;2023-05-07T04:30:39;12.30;99.90
23803;DHT22;12082;51.786;6.018;2023-05-07T04:33:05;12.30;99.90
23803;DHT22;12082;51.786;6.018;2023-05-07T04:35:32;12.40;99.90
23803;DHT22;12082;51.786;6.018;2023-05-07T04:37:57;12.40;99.90
23803;DHT22;12082;51.786;6.018;2023-05-07T04:40:23;12.40;99.90
23803;DHT22;12082;51.786;6.018;2023-05-07T04:42:48;12.40;99.90
23803;DHT22;12082;51.786;6.018;2023-05-07T04:45:14;12.50;99.90
23803;DHT22;12082;51.786;6.018;2023-05-07T04:47:40;12.50;99.90
23803;DHT22;12082;51.786;6.018;2023-05-07T04:50:07;12.50;99.90
23803;DHT22;12082;51.786;6.018;2023-05-07T04:52:33;12.50;99.90
23803;DHT22;12082;51.786;6.018;2023-05-07T04:55:00;12.50;99.90
23803;DHT22;12082;51.786;6.018;2023-05-07T04:57:26;12.50;99.90
23803;DHT22;12082;51.786;6.018;2023-05-07T04:59:52;12.50;99.90
23803;DHT22;12082;51.786;6.018;2023-05-07T05:02:18;12.60;99.90
23803;DHT22;12082;51.786;6.018;2023-05-07T05:04:43;12.60;99.90
23803;DHT22;12082;51.786;6.018;2023-05-07T05:07:09;12.60;99.90
23803;DHT22;12082;51.786;6.018;2023-05-07T05:09:34;12.60;99.90
23803;DHT22;12082;51.786;6.018;2023-05-07T05:12:00;12.60;99.90
23803;DHT22;12082;51.786;6.018;2023-05-07T05:14:25;12.70;99.90
23803;DHT22;12082;51.786;6.018;2023-05-07T05:16:51;12.70;99.90
23803;DHT22;12082;51.786;6.018;2023-05-07T05:19:17;12.70;99.90
23803;DHT22;12082;51.786;6.018;2023-05-07T05:21:42;12.80;99.90
23803;DHT22;12082;51.786;6.018;2023-05-07T05:24:08;12.80;99.90
23803;DHT22;12082;51.786;6.018;2023-05-07T05:26:34;13.00;99.90
23803;DHT22;12082;51.786;6.018;2023-05-07T05:28:59;13.00;99.90
23803;DHT22;12082;51.786;6.018;2023-05-07T05:31:25;13.10;99.90
23803;DHT22;12082;51.786;6.018;2023-05-07T05:33:51;13.20;99.90
23803;DHT22;12082;51.786;6.018;2023-05-07T05:36:16;13.30;99.90
23803;DHT22;12082;51.786;6.018;2023-05-07T05:38:42;13.30;99.90
23803;DHT22;12082;51.786;6.018;2023-05-07T05:41:08;13.40;99.90
23803;DHT22;12082;51.786;6.018;2023-05-07T05:43:33;13.50;99.90
23803;DHT22;12082;51.786;6.018;2023-05-07T05:45:59;13.50;99.90
23803;DHT22;12082;51.786;6.018;2023-05-07T05:48:25;13.60;99.90
23803;DHT22;12082;51.786;6.018;2023-05-07T05:50:51;13.60;99.90
23803;DHT22;12082;51.786;6.018;2023-05-07T05:53:16;13.70;99.90
23803;DHT22;12082;51.786;6.018;2023-05-07T05:55:42;13.80;99.90
23803;DHT22;12082;51.786;6.018;2023-05-07T05:58:09;13.90;99.90
23803;DHT22;12082;51.786;6.018;2023-05-07T06:00:34;14.00;99.90
23803;DHT22;12082;51.786;6.018;2023-05-07T06:03:00;14.10;99.90
23803;DHT22;12082;51.786;6.018;2023-05-07T06:05:26;14.30;99.90
23803;DHT22;12082;51.786;6.018;2023-05-07T06:07:51;14.40;99.90
23803;DHT22;12082;51.786;6.018;2023-05-07T06:10:17;14.50;99.90
23803;DHT22;12082;51.786;6.018;2023-05-07T06:12:43;14.50;99.90
23803;DHT22;12082;51.786;6.018;2023-05-07T06:15:08;14.60;99.90
23803;DHT22;12082;51.786;6.018;2023-05-07T06:17:34;14.60;99.90
23803;DHT22;12082;51.786;6.018;2023-05-07T06:20:00;14.50;99.90
23803;DHT22;12082;51.786;6.018;2023-05-07T06:22:26;14.60;99.90
23803;DHT22;12082;51.786;6.018;2023-05-07T06:24:51;14.60;99.90
23803;DHT22;12082;51.786;6.018;2023-05-07T06:27:17;14.50;99.90
23803;DHT22;12082;51.786;6.018;2023-05-07T06:29:42;14.60;99.90
23803;DHT22;12082;51.786;6.018;2023-05-07T06:32:10;14.70;99.90
23803;DHT22;12082;51.786;6.018;2023-05-07T06:34:36;14.70;99.90
23803;DHT22;12082;51.786;6.018;2023-05-07T06:37:01;14.70;99.90
23803;DHT22;12082;51.786;6.018;2023-05-07T06:39:27;14.80;99.90
23803;DHT22;12082;51.786;6.018;2023-05-07T06:41:53;14.70;99.90
23803;DHT22;12082;51.786;6.018;2023-05-07T06:44:19;14.70;99.90
23803;DHT22;12082;51.786;6.018;2023-05-07T06:46:44;14.70;99.90
23803;DHT22;12082;51.786;6.018;2023-05-07T06:49:12;14.70;99.90
23803;DHT22;12082;51.786;6.018;2023-05-07T06:51:38;14.90;99.90
23803;DHT22;12082;51.786;6.018;2023-05-07T06:54:03;15.00;99.90
23803;DHT22;12082;51.786;6.018;2023-05-07T06:56:30;15.00;99.90
23803;DHT22;12082;51.786;6.018;2023-05-07T06:58:55;15.10;99.90
23803;DHT22;12082;51.786;6.018;2023-05-07T07:01:21;15.10;99.90
23803;DHT22;12082;51.786;6.018;2023-05-07T07:03:46;15.20;99.90
23803;DHT22;12082;51.786;6.018;2023-05-07T07:06:12;15.20;99.90
23803;DHT22;12082;51.786;6.018;2023-05-07T07:08:38;15.20;99.90
23803;DHT22;12082;51.786;6.018;2023-05-07T07:11:08;15.30;99.90
23803;DHT22;12082;51.786;6.018;2023-05-07T07:13:33;15.30;99.90
23803;DHT22;12082;51.786;6.018;2023-05-07T07:16:00;15.40;99.90
23803;DHT22;12082;51.786;6.018;2023-05-07T07:18:25;15.50;99.90
23803;DHT22;12082;51.786;6.018;2023-05-07T07:20:51;15.60;99.90
23803;DHT22;12082;51.786;6.018;2023-05-07T07:23:16;15.60;99.90
23803;DHT22;12082;51.786;6.018;2023-05-07T07:25:42;15.70;99.90
23803;DHT22;12082;51.786;6.018;2023-05-07T07:28:08;15.70;99.90
23803;DHT22;12082;51.786;6.018;2023-05-07T07:30:33;15.80;99.90
23803;DHT22;12082;51.786;6.018;2023-05-07T07:32:59;15.80;99.90
23803;DHT22;12082;51.786;6.018;2023-05-07T07:35:32;15.90;99.90
23803;DHT22;12082;51.786;6.018;2023-05-07T07:37:58;15.90;99.90
23803;DHT22;12082;51.786;6.018;2023-05-07T07:40:23;16.00;99.90
23803;DHT22;12082;51.786;6.018;2023-05-07T07:42:50;16.00;99.90
23803;DHT22;12082;51.786;6.018;2023-05-07T07:45:16;16.10;99.90
23803;DHT22;12082;51.786;6.018;2023-05-07T07:47:42;16.10;99.90
23803;DHT22;12082;51.786;6.018;2023-05-07T07:50:08;16.20;99.90
23803;DHT22;12082;51.786;6.018;2023-05-07T07:52:34;16.20;99.90
23803;DHT22;12082;51.786;6.018;2023-05-07T07:55:00;16.30;99.90
23803;DHT22;12082;51.786;6.018;2023-05-07T07:57:25;16.40;99.90
23803;DHT22;12082;51.786;6.018;2023-05-07T07:59:51;16.40;99.90
23803;DHT22;12082;51.786;6.018;2023-05-07T08:02:17;16.50;99.90
23803;DHT22;12082;51.786;6.018;2023-05-07T08:04:43;16.60;99.90
23803;DHT22;12082;51.786;6.018;2023-05-07T08:07:09;16.60;99.90
23803;DHT22;12082;51.786;6.018;2023-05-07T08:09:36;16.60;99.90
23803;DHT22;12082;51.786;6.018;2023-05-07T08:12:02;16.60;99.90
23803;DHT22;12082;51.786;6.018;2023-05-07T08:14:28;16.70;99.90
23803;DHT22;12082;51.786;6.018;2023-05-07T08:16:54;16.80;99.90
23803;DHT22;12082;51.786;6.018;2023-05-07T08:19:20;16.90;99.90
23803;DHT22;12082;51.786;6.018;2023-05-07T08:21:46;17.00;99.90
23803;DHT22;12082;51.786;6.018;2023-05-07T08:24:13;17.00;99.90
23803;DHT22;12082;51.786;6.018;2023-05-07T08:26:39;17.20;99.90
23803;DHT22;12082;51.786;6.018;2023-05-07T08:29:05;17.40;99.90
23803;DHT22;12082;51.786;6.018;2023-05-07T08:31:31;17.50;99.90
23803;DHT22;12082;51.786;6.018;2023-05-07T08:33:57;17.60;99.90
23803;DHT22;12082;51.786;6.018;2023-05-07T08:36:23;17.80;99.90
23803;DHT22;12082;51.786;6.018;2023-05-07T08:38:49;18.20;99.90
23803;DHT22;12082;51.786;6.018;2023-05-07T08:41:15;18.70;99.90
23803;DHT22;12082;51.786;6.018;2023-05-07T08:43:41;19.00;99.90
23803;DHT22;12082;51.786;6.018;2023-05-07T08:46:09;19.40;99.90
23803;DHT22;12082;51.786;6.018;2023-05-07T08:48:36;19.00;99.90
23803;DHT22;12082;51.786;6.018;2023-05-07T08:51:02;19.50;99.90
23803;DHT22;12082;51.786;6.018;2023-05-07T08:53:28;19.60;99.90
23803;DHT22;12082;51.786;6.018;2023-05-07T08:55:54;19.60;99.90
23803;DHT22;12082;51.786;6.018;2023-05-07T08:58:20;19.40;99.90
23803;DHT22;12082;51.786;6.018;2023-05-07T09:00:46;19.40;99.90
23803;DHT22;12082;51.786;6.018;2023-05-07T09:03:12;19.60;99.90
23803;DHT22;12082;51.786;6.018;2023-05-07T09:05:39;19.80;99.90
23803;DHT22;12082;51.786;6.018;2023-05-07T09:08:07;19.90;99.90
23803;DHT22;12082;51.786;6.018;2023-05-07T09:10:33;20.00;99.90
23803;DHT22;12082;51.786;6.018;2023-05-07T09:12:59;20.10;99.90
23803;DHT22;12082;51.786;6.018;2023-05-07T09:15:26;20.10;99.90
23803;DHT22;12082;51.786;6.018;2023-05-07T09:17:51;20.10;99.90
23803;DHT22;12082;51.786;6.018;2023-05-07T09:20:17;20.30;99.90
23803;DHT22;12082;51.786;6.018;2023-05-07T09:22:43;20.10;99.90
23803;DHT22;12082;51.786;6.018;2023-05-07T09:25:09;20.10;99.90
23803;DHT22;12082;51.786;6.018;2023-05-07T09:27:35;20.30;99.90
23803;DHT22;12082;51.786;6.018;2023-05-07T09:30:08;20.30;99.90
23803;DHT22;12082;51.786;6.018;2023-05-07T09:32:37;20.40;99.90
23803;DHT22;12082;51.786;6.018;2023-05-07T09:35:05;20.50;99.90
23803;DHT22;12082;51.786;6.018;2023-05-07T09:37:31;20.60;99.90
23803;DHT22;12082;51.786;6.018;2023-05-07T09:39:58;20.80;99.90
23803;DHT22;12082;51.786;6.018;2023-05-07T09:42:24;20.80;99.90
23803;DHT22;12082;51.786;6.018;2023-05-07T09:44:51;20.70;99.90
23803;DHT22;12082;51.786;6.018;2023-05-07T09:47:23;20.80;99.90
23803;DHT22;12082;51.786;6.018;2023-05-07T09:49:50;21.00;99.90
23803;DHT22;12082;51.786;6.018;2023-05-07T09:52:19;21.00;99.90
23803;DHT22;12082;51.786;6.018;2023-05-07T09:54:47;21.00;99.90
23803;DHT22;12082;51.786;6.018;2023-05-07T09:57:15;20.90;99.90
23803;DHT22;12082;51.786;6.018;2023-05-07T09:59:43;21.00;99.90
23803;DHT22;12082;51.786;6.018;2023-05-07T10:02:09;20.80;99.90
23803;DHT22;12082;51.786;6.018;2023-05-07T10:04:35;20.70;99.90
23803;DHT22;12082;51.786;6.018;2023-05-07T10:07:03;20.60;99.90
23803;DHT22;12082;51.786;6.018;2023-05-07T10:09:30;20.50;99.90
23803;DHT22;12082;51.786;6.018;2023-05-07T10:11:56;20.50;99.90
23803;DHT22;12082;51.786;6.018;2023-05-07T10:14:22;20.70;99.90
23803;DHT22;12082;51.786;6.018;2023-05-07T10:16:48;20.90;99.90
23803;DHT22;12082;51.786;6.018;2023-05-07T10:19:14;21.10;99.90
23803;DHT22;12082;51.786;6.018;2023-05-07T10:21:47;21.30;99.90
23803;DHT22;12082;51.786;6.018;2023-05-07T10:24:29;21.30;99.90
23803;DHT22;12082;51.786;6.018;2023-05-07T10:26:58;21.50;99.90
23803;DHT22;12082;51.786;6.018;2023-05-07T10:34:36;21.40;99.90
23803;DHT22;12082;51.786;6.018;2023-05-07T10:37:03;21.30;99.90
23803;DHT22;12082;51.786;6.018;2023-05-07T10:39:29;21.40;99.90
23803;DHT22;12082;51.786;6.018;2023-05-07T10:41:55;21.50;99.90
23803;DHT22;12082;51.786;6.018;2023-05-07T10:44:27;21.30;99.90
23803;DHT22;12082;51.786;6.018;2023-05-07T10:47:14;21.20;99.90
23803;DHT22;12082;51.786;6.018;2023-05-07T10:52:18;21.30;99.90
23803;DHT22;12082;51.786;6.018;2023-05-07T10:54:45;21.40;99.90
23803;DHT22;12082;51.786;6.018;2023-05-07T10:57:35;21.30;99.90
23803;DHT22;12082;51.786;6.018;2023-05-07T11:00:02;21.40;99.90
23803;DHT22;12082;51.786;6.018;2023-05-07T11:05:26;21.90;99.90
23803;DHT22;12082;51.786;6.018;2023-05-07T11:07:56;21.30;99.90
23803;DHT22;12082;51.786;6.018;2023-05-07T11:10:22;21.30;99.90
23803;DHT22;12082;51.786;6.018;2023-05-07T11:12:51;21.30;99.90
23803;DHT22;12082;51.786;6.018;2023-05-07T11:15:44;21.20;99.90
23803;DHT22;12082;51.786;6.018;2023-05-07T11:18:11;21.20;99.90
23803;DHT22;12082;51.786;6.018;2023-05-07T11:20:47;21.20;99.90
23803;DHT22;12082;51.786;6.018;2023-05-07T11:26:01;21.30;99.90
23803;DHT22;12082;51.786;6.018;2023-05-07T11:28:28;21.20;99.90
23803;DHT22;12082;51.786;6.018;2023-05-07T11:30:55;21.20;99.90
23803;DHT22;12082;51.786;6.018;2023-05-07T11:33:22;21.20;99.90
23803;DHT22;12082;51.786;6.018;2023-05-07T11:35:48;20.50;99.90
23803;DHT22;12082;51.786;6.018;2023-05-07T11:38:13;21.40;99.90
23803;DHT22;12082;51.786;6.018;2023-05-07T11:40:56;21.60;99.90
23803;DHT22;12082;51.786;6.018;2023-05-07T11:43:21;21.60;99.90
23803;DHT22;12082;51.786;6.018;2023-05-07T11:45:47;21.70;99.90
23803;DHT22;12082;51.786;6.018;2023-05-07T11:48:14;21.60;99.90
23803;DHT22;12082;51.786;6.018;2023-05-07T11:50:54;21.70;99.90
23803;DHT22;12082;51.786;6.018;2023-05-07T11:53:26;21.70;99.90
23803;DHT22;12082;51.786;6.018;2023-05-07T11:55:53;21.80;99.90
23803;DHT22;12082;51.786;6.018;2023-05-07T11:58:23;21.70;99.90
23803;DHT22;12082;51.786;6.018;2023-05-07T12:00:53;21.80;99.90
23803;DHT22;12082;51.786;6.018;2023-05-07T12:03:19;21.70;99.90
23803;DHT22;12082;51.786;6.018;2023-05-07T12:05:46;21.60;99.90
23803;DHT22;12082;51.786;6.018;2023-05-07T12:08:15;21.60;99.90
23803;DHT22;12082;51.786;6.018;2023-05-07T12:10:45;21.80;99.90
23803;DHT22;12082;51.786;6.018;2023-05-07T12:13:29;21.70;99.90
23803;DHT22;12082;51.786;6.018;2023-05-07T12:15:58;21.80;99.90
23803;DHT22;12082;51.786;6.018;2023-05-07T12:18:24;21.70;99.90
23803;DHT22;12082;51.786;6.018;2023-05-07T12:20:50;21.70;99.90
23803;DHT22;12082;51.786;6.018;2023-05-07T12:23:16;21.60;99.90
23803;DHT22;12082;51.786;6.018;2023-05-07T12:25:43;21.50;99.90
23803;DHT22;12082;51.786;6.018;2023-05-07T12:28:19;21.40;99.90
23803;DHT22;12082;51.786;6.018;2023-05-07T12:30:46;21.60;99.90
23803;DHT22;12082;51.786;6.018;2023-05-07T12:33:14;21.40;99.90
23803;DHT22;12082;51.786;6.018;2023-05-07T12:35:42;21.40;99.90
23803;DHT22;12082;51.786;6.018;2023-05-07T12:38:13;21.50;99.90
23803;DHT22;12082;51.786;6.018;2023-05-07T12:40:44;21.50;99.90
23803;DHT22;12082;51.786;6.018;2023-05-07T12:43:27;21.40;99.90
23803;DHT22;12082;51.786;6.018;2023-05-07T12:45:59;21.20;99.90
23803;DHT22;12082;51.786;6.018;2023-05-07T12:48:25;21.20;99.90
23803;DHT22;12082;51.786;6.018;2023-05-07T12:50:56;21.20;99.90
23803;DHT22;12082;51.786;6.018;2023-05-07T12:53:24;21.30;99.90
23803;DHT22;12082;51.786;6.018;2023-05-07T12:55:55;21.30;99.90
23803;DHT22;12082;51.786;6.018;2023-05-07T13:00:53;21.20;99.90
23803;DHT22;12082;51.786;6.018;2023-05-07T13:05:48;21.10;99.90
23803;DHT22;12082;51.786;6.018;2023-05-07T13:08:24;21.00;99.90
23803;DHT22;12082;51.786;6.018;2023-05-07T13:10:49;20.90;99.90
23803;DHT22;12082;51.786;6.018;2023-05-07T13:13:15;20.80;99.90
23803;DHT22;12082;51.786;6.018;2023-05-07T13:15:40;20.70;99.90
23803;DHT22;12082;51.786;6.018;2023-05-07T13:18:06;20.80;99.90
23803;DHT22;12082;51.786;6.018;2023-05-07T13:20:32;20.80;99.90
23803;DHT22;12082;51.786;6.018;2023-05-07T13:22:57;20.80;99.90
23803;DHT22;12082;51.786;6.018;2023-05-07T13:25:23;20.80;99.90
23803;DHT22;12082;51.786;6.018;2023-05-07T13:27:48;20.70;99.90
23803;DHT22;12082;51.786;6.018;2023-05-07T13:30:14;20.70;99.90
23803;DHT22;12082;51.786;6.018;2023-05-07T13:32:39;20.70;99.90
23803;DHT22;12082;51.786;6.018;2023-05-07T13:35:05;20.70;99.90
23803;DHT22;12082;51.786;6.018;2023-05-07T13:37:31;20.60;99.90
23803;DHT22;12082;51.786;6.018;2023-05-07T13:39:57;20.50;99.90
23803;DHT22;12082;51.786;6.018;2023-05-07T13:42:22;20.60;99.90
23803;DHT22;12082;51.786;6.018;2023-05-07T13:44:48;20.50;99.90
23803;DHT22;12082;51.786;6.018;2023-05-07T13:47:13;20.50;99.90
23803;DHT22;12082;51.786;6.018;2023-05-07T13:49:39;20.50;99.90
23803;DHT22;12082;51.786;6.018;2023-05-07T13:52:04;20.50;99.90
23803;DHT22;12082;51.786;6.018;2023-05-07T13:54:30;20.40;99.90
23803;DHT22;12082;51.786;6.018;2023-05-07T13:56:56;20.40;99.90
23803;DHT22;12082;51.786;6.018;2023-05-07T13:59:21;20.40;99.90
23803;DHT22;12082;51.786;6.018;2023-05-07T14:01:47;20.70;99.90
23803;DHT22;12082;51.786;6.018;2023-05-07T14:04:12;20.40;99.90
23803;DHT22;12082;51.786;6.018;2023-05-07T14:06:38;20.40;99.90
23803;DHT22;12082;51.786;6.018;2023-05-07T14:09:04;20.30;99.90
23803;DHT22;12082;51.786;6.018;2023-05-07T14:11:29;20.30;99.90
23803;DHT22;12082;51.786;6.018;2023-05-07T14:13:55;20.40;99.90
23803;DHT22;12082;51.786;6.018;2023-05-07T14:16:22;20.40;99.90
23803;DHT22;12082;51.786;6.018;2023-05-07T14:18:47;20.30;99.90
23803;DHT22;12082;51.786;6.018;2023-05-07T14:21:13;20.30;99.90
23803;DHT22;12082;51.786;6.018;2023-05-07T14:23:39;20.30;99.90
23803;DHT22;12082;51.786;6.018;2023-05-07T14:26:04;20.30;99.90
23803;DHT22;12082;51.786;6.018;2023-05-07T14:28:30;20.30;99.90
23803;DHT22;12082;51.786;6.018;2023-05-07T14:30:56;20.30;99.90
23803;DHT22;12082;51.786;6.018;2023-05-07T14:33:21;20.20;99.90
23803;DHT22;12082;51.786;6.018;2023-05-07T14:35:47;20.30;99.90
23803;DHT22;12082;51.786;6.018;2023-05-07T14:38:15;20.30;99.90
23803;DHT22;12082;51.786;6.018;2023-05-07T14:40:41;20.30;99.90
23803;DHT22;12082;51.786;6.018;2023-05-07T14:43:06;20.40;99.90
23803;DHT22;12082;51.786;6.018;2023-05-07T14:45:32;20.20;99.90
23803;DHT22;12082;51.786;6.018;2023-05-07T14:47:57;20.20;99.90
23803;DHT22;12082;51.786;6.018;2023-05-07T14:50:23;19.80;99.90
23803;DHT22;12082;51.786;6.018;2023-05-07T14:52:48;18.80;99.90
23803;DHT22;12082;51.786;6.018;2023-05-07T14:55:14;18.10;99.90
23803;DHT22;12082;51.786;6.018;2023-05-07T14:57:40;17.50;99.90
23803;DHT22;12082;51.786;6.018;2023-05-07T15:00:06;17.10;99.90
23803;DHT22;12082;51.786;6.018;2023-05-07T15:02:32;16.80;99.90
23803;DHT22;12082;51.786;6.018;2023-05-07T15:04:59;16.60;99.90
23803;DHT22;12082;51.786;6.018;2023-05-07T15:07:24;16.40;99.90
23803;DHT22;12082;51.786;6.018;2023-05-07T15:09:50;16.30;99.90
23803;DHT22;12082;51.786;6.018;2023-05-07T15:12:16;16.20;99.90
23803;DHT22;12082;51.786;6.018;2023-05-07T15:14:41;16.00;99.90
23803;DHT22;12082;51.786;6.018;2023-05-07T15:17:07;16.00;99.90
23803;DHT22;12082;51.786;6.018;2023-05-07T15:19:33;15.70;99.90
23803;DHT22;12082;51.786;6.018;2023-05-07T15:21:59;15.70;99.90
23803;DHT22;12082;51.786;6.018;2023-05-07T15:24:28;15.50;99.90
23803;DHT22;12082;51.786;6.018;2023-05-07T15:26:53;15.40;99.90
23803;DHT22;12082;51.786;6.018;2023-05-07T15:29:19;15.30;99.90
23803;DHT22;12082;51.786;6.018;2023-05-07T15:31:45;15.20;99.90
23803;DHT22;12082;51.786;6.018;2023-05-07T15:34:11;15.20;99.90
23803;DHT22;12082;51.786;6.018;2023-05-07T15:36:37;15.10;99.90
23803;DHT22;12082;51.786;6.018;2023-05-07T15:39:02;15.10;99.90
23803;DHT22;12082;51.786;6.018;2023-05-07T15:41:29;15.00;99.90
23803;DHT22;12082;51.786;6.018;2023-05-07T15:43:55;15.00;99.90
23803;DHT22;12082;51.786;6.018;2023-05-07T15:46:22;15.00;99.90